createdAt,value
2019-05-21T00:02:45.122Z,6.57
2019-05-21T00:06:47.048Z,9.37
2019-05-21T00:10:48.942Z,8.10
2019-05-21T00:14:50.872Z,8.10
2019-05-21T00:18:52.861Z,7.03
2019-05-21T00:22:54.789Z,7.70
2019-05-21T00:26:56.697Z,5.67
2019-05-21T00:31:52.714Z,7.70
2019-05-21T00:36:49.706Z,8.90
2019-05-21T00:41:45.558Z,8.13
2019-05-21T00:45:47.460Z,7.23
2019-05-21T00:49:52.004Z,4.57
2019-05-21T00:53:53.931Z,4.93
2019-05-21T00:57:55.830Z,4.67
2019-05-21T01:01:57.743Z,5.23
2019-05-21T01:05:59.723Z,4.13
2019-05-21T01:10:01.638Z,7.30
2019-05-21T01:14:03.532Z,5.13
2019-05-21T01:18:05.469Z,7.50
2019-05-21T01:22:07.359Z,5.20
2019-05-21T01:26:09.271Z,4.60
2019-05-21T01:30:11.591Z,3.92
2019-05-21T01:34:15.327Z,4.78
2019-05-21T01:38:17.285Z,4.03
2019-05-21T01:42:19.195Z,3.70
2019-05-21T01:46:21.130Z,6.67
2019-05-21T01:50:23.005Z,3.40
2019-05-21T01:54:24.934Z,2.90
2019-05-21T01:58:27.166Z,3.70
2019-05-21T02:02:29.084Z,3.03
2019-05-21T02:06:31.000Z,2.83
2019-05-21T02:10:32.901Z,2.40
2019-05-21T02:14:35.112Z,3.97
2019-05-21T02:18:37.007Z,2.57
2019-05-21T02:22:38.960Z,2.80
2019-05-21T02:26:40.873Z,4.37
2019-05-21T02:30:45.582Z,3.37
2019-05-21T02:34:47.488Z,4.07
2019-05-21T02:38:49.391Z,3.93
2019-05-21T02:42:51.395Z,4.67
2019-05-21T02:46:53.405Z,4.67
2019-05-21T02:50:55.383Z,7.53
2019-05-21T02:54:57.286Z,6.77
2019-05-21T02:58:59.200Z,6.80
2019-05-21T03:03:05.424Z,7.40
2019-05-21T03:07:19.200Z,7.43
2019-05-21T03:11:21.106Z,8.70
2019-05-21T03:15:23.054Z,5.77
2019-05-21T03:19:24.968Z,6.60
2019-05-21T03:23:26.932Z,6.10
2019-05-21T03:27:28.858Z,6.23
2019-05-21T03:31:31.034Z,6.23
2019-05-21T03:35:32.951Z,4.57
2019-05-21T03:39:34.860Z,5.27
2019-05-21T03:43:36.773Z,3.43
2019-05-21T03:47:38.685Z,5.10
2019-05-21T03:51:40.609Z,5.53
2019-05-21T03:55:42.525Z,5.30
2019-05-21T03:59:44.512Z,4.57
2019-05-21T04:03:46.477Z,5.60
2019-05-21T04:07:49.375Z,3.90
2019-05-21T04:11:53.286Z,3.90
2019-05-21T04:15:59.439Z,4.20
2019-05-21T04:20:02.336Z,2.90
2019-05-21T04:24:08.487Z,3.30
2019-05-21T04:28:08.019Z,2.50
2019-05-21T04:32:10.213Z,2.30
2019-05-21T04:36:12.768Z,1.97
2019-05-21T04:40:15.404Z,1.50
2019-05-21T04:44:17.307Z,3.90
2019-05-21T04:48:19.299Z,2.55
2019-05-21T04:52:21.207Z,1.40
2019-05-21T04:56:23.102Z,3.33
2019-05-21T05:00:25.074Z,1.83
2019-05-21T05:04:26.971Z,2.90
2019-05-21T05:08:28.878Z,1.13
2019-05-21T05:12:30.772Z,1.70
2019-05-21T05:16:32.684Z,0.90
2019-05-21T05:20:34.651Z,1.30
2019-05-21T05:24:37.202Z,1.10
2019-05-21T05:28:39.239Z,1.83
2019-05-21T05:32:41.332Z,1.77
2019-05-21T05:36:43.252Z,3.03
2019-05-21T05:40:45.141Z,1.77
2019-05-21T05:44:47.732Z,3.83
2019-05-21T05:48:51.373Z,2.17
2019-05-21T05:52:53.272Z,2.50
2019-05-21T05:56:55.199Z,2.13
2019-05-21T06:00:57.199Z,2.53
2019-05-21T06:04:59.149Z,5.90
2019-05-21T06:09:01.570Z,2.03
2019-05-21T06:13:05.036Z,3.23
2019-05-21T06:17:07.267Z,3.08
2019-05-21T06:21:09.245Z,1.32
2019-05-21T06:25:12.078Z,1.27
2019-05-21T06:29:13.988Z,1.50
2019-05-21T06:33:15.915Z,1.10
2019-05-21T06:37:17.840Z,1.50
2019-05-21T06:41:19.757Z,3.30
2019-05-21T06:45:23.243Z,1.30
2019-05-21T06:49:25.254Z,0.90
2019-05-21T06:53:27.980Z,1.30
2019-05-21T06:57:29.935Z,0.80
2019-05-21T07:01:31.893Z,1.23
2019-05-21T07:05:33.849Z,0.93
2019-05-21T07:09:35.746Z,1.17
2019-05-21T07:13:37.659Z,6.40
2019-05-21T07:17:39.561Z,1.83
2019-05-21T07:21:41.501Z,1.37
2019-05-21T07:25:43.478Z,2.03
2019-05-21T07:29:45.392Z,1.00
2019-05-21T07:33:47.306Z,1.83
2019-05-21T07:37:49.216Z,2.50
2019-05-21T07:41:51.121Z,1.30
2019-05-21T07:45:53.688Z,1.37
2019-05-21T07:49:55.611Z,3.13
2019-05-21T07:53:57.530Z,1.40
2019-05-21T07:57:59.456Z,1.70
2019-05-21T08:02:01.442Z,1.50
2019-05-21T08:06:03.385Z,1.60
2019-05-21T08:10:08.276Z,1.70
2019-05-21T08:14:11.423Z,1.50
2019-05-21T08:18:13.319Z,1.40
2019-05-21T08:22:15.233Z,1.70
2019-05-21T08:26:17.160Z,2.20
2019-05-21T08:30:19.678Z,1.80
2019-05-21T08:34:21.602Z,1.82
2019-05-21T08:38:23.506Z,2.13
2019-05-21T08:42:25.499Z,1.40
2019-05-21T08:46:27.575Z,1.40
2019-05-21T08:50:29.482Z,1.50
2019-05-21T08:54:49.364Z,1.60
2019-05-21T08:58:51.351Z,1.67
2019-05-21T09:02:53.252Z,1.50
2019-05-21T09:06:55.249Z,1.37
2019-05-21T09:10:57.157Z,1.20
2019-05-21T09:14:59.165Z,1.70
2019-05-21T09:19:01.397Z,1.60
2019-05-21T09:23:03.299Z,1.80
2019-05-21T09:27:05.339Z,2.07
2019-05-21T09:31:07.243Z,2.03
2019-05-21T09:35:10.960Z,2.20
2019-05-21T09:39:12.874Z,2.27
2019-05-21T09:43:14.808Z,2.02
2019-05-21T09:47:16.715Z,2.43
2019-05-21T09:51:20.050Z,2.12
2019-05-21T09:55:22.358Z,2.65
2019-05-21T09:59:33.196Z,2.40
2019-05-21T10:03:39.409Z,2.73
2019-05-21T10:07:41.318Z,2.13
2019-05-21T10:11:43.226Z,2.10
2019-05-21T10:15:45.152Z,2.23
2019-05-21T10:19:47.167Z,4.37
2019-05-21T10:23:49.563Z,2.30
2019-05-21T10:27:51.460Z,2.10
2019-05-21T10:31:53.952Z,2.50
2019-05-21T10:35:57.374Z,2.60
2019-05-21T10:39:59.300Z,3.80
2019-05-21T10:44:01.427Z,2.27
2019-05-21T10:48:03.388Z,2.80
2019-05-21T10:52:05.690Z,4.47
2019-05-21T10:56:07.573Z,3.53
2019-05-21T11:00:16.955Z,3.10
2019-05-21T11:04:20.509Z,4.20
2019-05-21T11:08:24.400Z,3.60
2019-05-21T11:12:26.354Z,6.20
2019-05-21T11:16:28.324Z,3.57
2019-05-21T11:20:30.251Z,3.63
2019-05-21T11:24:32.142Z,4.70
2019-05-21T11:28:34.071Z,5.67
2019-05-21T11:32:36.043Z,4.17
2019-05-21T11:36:37.969Z,4.63
2019-05-21T11:40:39.936Z,6.10
2019-05-21T11:44:41.867Z,5.03
2019-05-21T11:48:43.778Z,5.17
2019-05-21T11:52:45.859Z,5.40
2019-05-21T11:56:47.766Z,5.20
2019-05-21T12:00:49.944Z,5.20
2019-05-21T12:04:51.847Z,4.33
2019-05-21T12:08:56.995Z,8.30
2019-05-21T12:12:57.454Z,5.33
2019-05-21T12:16:59.371Z,4.90
2019-05-21T12:21:01.646Z,6.57
2019-05-21T12:25:03.851Z,8.63
2019-05-21T12:29:05.821Z,6.83
2019-05-21T12:33:07.731Z,7.53
2019-05-21T12:37:09.737Z,9.17
2019-05-21T12:41:13.783Z,8.13
2019-05-21T12:45:15.328Z,9.93
2019-05-21T12:49:17.238Z,8.55
2019-05-21T12:53:19.178Z,8.13
2019-05-21T12:57:21.093Z,8.58
2019-05-21T13:01:23.073Z,7.25
2019-05-21T13:05:25.100Z,10.77
2019-05-21T13:09:32.594Z,8.20
2019-05-21T13:13:30.671Z,6.90
2019-05-21T13:17:32.583Z,7.03
2019-05-21T13:21:34.501Z,6.40
2019-05-21T13:25:37.449Z,7.15
2019-05-21T13:29:39.388Z,6.63
2019-05-21T13:33:41.287Z,4.97
2019-05-21T13:37:43.242Z,6.30
2019-05-21T13:41:46.095Z,4.23
2019-05-21T13:45:48.007Z,5.63
2019-05-21T13:49:49.925Z,4.93
2019-05-21T13:53:51.959Z,8.90
2019-05-21T13:57:54.038Z,6.30
2019-05-21T14:01:55.963Z,8.23
2019-05-21T14:05:57.848Z,8.00
2019-05-21T14:10:14.203Z,5.90
2019-05-21T14:14:03.402Z,10.43
2019-05-21T14:18:05.384Z,9.53
2019-05-21T14:22:07.960Z,7.70
2019-05-21T14:26:09.934Z,4.83
2019-05-21T14:30:12.881Z,6.17
2019-05-21T14:34:14.814Z,5.20
2019-05-21T14:38:16.747Z,5.97
2019-05-21T14:42:18.667Z,6.33
2019-05-21T14:46:20.568Z,7.03
2019-05-21T14:50:22.789Z,7.00
2019-05-21T14:54:27.015Z,7.90
2019-05-21T14:58:28.303Z,6.80
2019-05-21T15:02:30.243Z,8.37
2019-05-21T15:06:32.170Z,7.87
2019-05-21T15:10:47.162Z,7.73
2019-05-21T15:14:38.112Z,9.10
2019-05-21T15:18:39.968Z,6.37
2019-05-21T15:22:41.935Z,5.80
2019-05-21T15:26:43.840Z,5.17
2019-05-21T15:30:46.534Z,3.20
2019-05-21T15:34:48.438Z,3.10
2019-05-21T15:38:51.282Z,4.00
2019-05-21T15:42:53.853Z,3.03
2019-05-21T15:46:55.949Z,3.70
2019-05-21T15:50:57.854Z,5.33
2019-05-21T15:54:59.889Z,5.80
2019-05-21T15:59:01.812Z,4.80
2019-05-21T16:03:03.712Z,6.77
2019-05-21T16:07:05.870Z,5.30
2019-05-21T16:11:08.175Z,7.53
2019-05-21T16:15:10.236Z,5.90
2019-05-21T16:19:12.132Z,6.45
2019-05-21T16:23:14.125Z,7.53
2019-05-21T16:27:16.034Z,7.97
2019-05-21T16:31:18.014Z,5.12
2019-05-21T16:35:20.015Z,8.20
2019-05-21T16:39:23.188Z,6.33
2019-05-21T16:43:25.170Z,5.08
2019-05-21T16:47:42.411Z,5.50
2019-05-21T16:51:30.945Z,4.70
2019-05-21T16:55:34.996Z,7.80
2019-05-21T16:59:36.984Z,10.73
2019-05-21T17:03:39.869Z,9.50
2019-05-21T17:07:41.766Z,7.87
2019-05-21T17:11:57.570Z,9.40
2019-05-21T17:15:47.533Z,10.57
2019-05-21T17:19:49.478Z,12.77
2019-05-21T17:23:51.414Z,12.47
2019-05-21T17:27:53.467Z,13.67
2019-05-21T17:31:55.404Z,15.87
2019-05-21T17:35:57.420Z,12.33
2019-05-21T17:39:59.327Z,11.73
2019-05-21T17:44:01.454Z,9.37
2019-05-21T17:48:03.611Z,11.30
2019-05-21T17:52:05.687Z,8.97
2019-05-21T17:56:07.942Z,6.83
2019-05-21T18:00:11.878Z,5.80
2019-05-21T18:04:14.222Z,7.15
2019-05-21T18:08:17.204Z,4.92
2019-05-21T18:12:31.554Z,8.48
2019-05-21T18:16:24.627Z,6.87
2019-05-21T18:20:27.194Z,5.47
2019-05-21T18:24:29.676Z,4.57
2019-05-21T18:28:31.856Z,5.10
2019-05-21T18:32:34.053Z,5.63
2019-05-21T18:36:36.220Z,7.20
2019-05-21T18:40:38.325Z,6.50
2019-05-21T18:44:40.514Z,5.97
2019-05-21T18:48:42.972Z,6.43
2019-05-21T18:52:44.889Z,9.47
2019-05-21T18:56:46.857Z,6.40
2019-05-21T19:00:49.040Z,8.10
2019-05-21T19:04:51.001Z,8.50
2019-05-21T19:08:52.974Z,10.97
2019-05-21T19:12:55.162Z,7.90
2019-05-21T19:16:57.065Z,8.33
2019-05-21T19:20:58.972Z,9.63
2019-05-21T19:25:01.582Z,8.67
2019-05-21T19:29:07.394Z,7.50
2019-05-21T19:33:08.255Z,7.73
2019-05-21T19:37:10.153Z,10.63
2019-05-21T19:41:12.181Z,13.05
2019-05-21T19:45:16.987Z,8.18
2019-05-21T19:49:19.053Z,6.07
2019-05-21T19:53:22.842Z,8.45
2019-05-21T19:57:26.607Z,7.28
2019-05-21T20:01:29.232Z,7.73
2019-05-21T20:05:31.509Z,8.90
2019-05-21T20:09:33.453Z,9.27
2019-05-21T20:13:35.367Z,8.37
2019-05-21T20:17:38.782Z,8.13
2019-05-21T20:21:41.482Z,8.00
2019-05-21T20:25:56.010Z,8.70
2019-05-21T20:29:48.004Z,10.47
2019-05-21T20:33:50.183Z,11.13
2019-05-21T20:37:52.557Z,12.13
2019-05-21T20:41:55.147Z,10.07
2019-05-21T20:45:57.906Z,10.23
2019-05-21T20:50:00.169Z,10.37
2019-05-21T20:54:04.857Z,11.23
2019-05-21T20:58:08.676Z,11.87
2019-05-21T21:02:11.731Z,9.57
2019-05-21T21:06:14.558Z,14.85
2019-05-21T21:10:17.522Z,12.70
2019-05-21T21:14:20.986Z,12.03
2019-05-21T21:18:22.910Z,11.12
2019-05-21T21:22:25.844Z,10.60
2019-05-21T21:26:29.083Z,11.40
2019-05-21T21:30:32.753Z,13.50
2019-05-21T21:34:34.853Z,12.43
2019-05-21T21:38:37.617Z,16.10
2019-05-21T21:42:41.101Z,13.03
2019-05-21T21:46:42.974Z,12.63
2019-05-21T21:50:45.339Z,15.57
2019-05-21T21:54:47.857Z,11.77
2019-05-21T21:58:50.447Z,17.17
2019-05-21T22:02:52.599Z,14.13
2019-05-21T22:06:55.926Z,13.60
2019-05-21T22:10:58.267Z,13.67
2019-05-21T22:15:00.815Z,14.20
2019-05-21T22:19:02.806Z,15.43
2019-05-21T22:23:05.726Z,19.30
2019-05-21T22:27:08.298Z,14.63
2019-05-21T22:31:10.437Z,13.47
2019-05-21T22:35:13.346Z,13.72
2019-05-21T22:39:19.938Z,15.55
2019-05-21T22:43:22.134Z,19.00
2019-05-21T22:47:24.047Z,17.37
2019-05-21T22:51:26.180Z,13.80
2019-05-21T22:55:28.110Z,17.87
2019-05-21T22:59:30.097Z,13.73
2019-05-21T23:03:32.523Z,14.73
2019-05-21T23:07:35.317Z,24.53
2019-05-21T23:11:37.580Z,16.87
2019-05-21T23:15:39.677Z,14.97
2019-05-21T23:20:02.304Z,12.27
2019-05-21T23:24:08.389Z,11.67
2019-05-21T23:28:10.587Z,13.53
2019-05-21T23:32:12.832Z,11.60
2019-05-21T23:36:15.539Z,14.80
2019-05-21T23:40:17.702Z,9.47
2019-05-21T23:44:20.591Z,11.35
2019-05-21T23:48:23.048Z,13.35
2019-05-21T23:52:26.105Z,12.85
2019-05-21T23:56:28.026Z,14.70
